createdAt,value
2022-07-31T00:00:42.038Z,19.47
2022-07-31T00:03:09.095Z,19.50
2022-07-31T00:05:38.699Z,19.42
2022-07-31T00:08:08.884Z,19.42
2022-07-31T00:10:36.258Z,19.33
2022-07-31T00:13:03.085Z,19.30
2022-07-31T00:15:30.191Z,19.32
2022-07-31T00:17:57.999Z,19.31
2022-07-31T00:20:24.750Z,19.27
2022-07-31T00:22:51.537Z,19.25
2022-07-31T00:25:19.057Z,19.17
2022-07-31T00:27:45.950Z,19.19
2022-07-31T00:30:17.642Z,19.17
2022-07-31T00:32:48.975Z,19.12
2022-07-31T00:35:18.762Z,19.18
2022-07-31T00:37:45.791Z,19.10
2022-07-31T00:40:15.732Z,19.06
2022-07-31T00:42:42.575Z,19.05
2022-07-31T00:45:10.352Z,18.96
2022-07-31T00:47:40.300Z,18.91
2022-07-31T00:50:08.018Z,18.96
2022-07-31T00:52:34.849Z,18.97
2022-07-31T00:55:01.798Z,18.99
2022-07-31T00:57:28.611Z,18.90
2022-07-31T00:59:55.352Z,18.88
2022-07-31T01:02:22.205Z,18.81
2022-07-31T01:04:48.990Z,18.76
2022-07-31T01:07:16.234Z,18.84
2022-07-31T01:09:43.023Z,18.82
2022-07-31T01:12:26.335Z,18.74
2022-07-31T01:14:55.734Z,18.78
2022-07-31T01:17:23.536Z,18.68
2022-07-31T01:19:51.037Z,18.65
2022-07-31T01:22:33.170Z,18.59
2022-07-31T01:25:11.727Z,18.55
2022-07-31T01:28:21.718Z,18.55
2022-07-31T01:31:04.982Z,18.58
2022-07-31T01:33:43.488Z,18.55
2022-07-31T01:36:14.150Z,18.59
2022-07-31T01:38:45.786Z,18.53
2022-07-31T01:41:13.990Z,18.55
2022-07-31T01:43:42.193Z,18.52
2022-07-31T01:46:12.777Z,18.48
2022-07-31T01:48:40.086Z,18.41
2022-07-31T01:51:09.135Z,18.39
2022-07-31T01:53:37.102Z,18.35
2022-07-31T01:56:04.571Z,18.28
2022-07-31T01:58:38.638Z,18.24
2022-07-31T02:01:14.265Z,18.27
2022-07-31T02:03:43.045Z,18.20
2022-07-31T02:06:14.544Z,18.23
2022-07-31T02:08:43.708Z,18.21
2022-07-31T02:11:14.217Z,18.19
2022-07-31T02:13:41.127Z,18.17
2022-07-31T02:16:08.575Z,18.17
2022-07-31T02:18:37.286Z,18.23
2022-07-31T02:21:15.325Z,18.16
2022-07-31T02:23:42.125Z,18.14
2022-07-31T02:26:09.172Z,18.14
2022-07-31T02:28:38.268Z,18.16
2022-07-31T02:31:07.055Z,18.17
2022-07-31T02:33:34.176Z,18.03
2022-07-31T02:36:01.717Z,18.06
2022-07-31T02:38:30.942Z,18.13
2022-07-31T02:40:59.038Z,18.09
2022-07-31T02:43:28.794Z,18.06
2022-07-31T02:45:57.536Z,18.04
2022-07-31T02:48:25.868Z,18.08
2022-07-31T02:50:54.361Z,18.02
2022-07-31T02:53:21.317Z,18.09
2022-07-31T02:55:51.955Z,18.03
2022-07-31T02:58:18.755Z,18.01
2022-07-31T03:00:46.155Z,17.97
2022-07-31T03:03:14.011Z,18.06
2022-07-31T03:05:42.071Z,18.18
2022-07-31T03:08:08.819Z,18.15
2022-07-31T03:10:39.400Z,18.07
2022-07-31T03:13:06.904Z,18.03
2022-07-31T03:15:34.081Z,18.05
2022-07-31T03:18:01.118Z,18.02
2022-07-31T03:20:40.281Z,17.97
2022-07-31T03:23:11.268Z,17.99
2022-07-31T03:25:49.009Z,18.05
2022-07-31T03:28:15.889Z,17.99
2022-07-31T03:30:43.300Z,18.00
2022-07-31T03:33:10.140Z,17.95
2022-07-31T03:35:42.417Z,17.99
2022-07-31T03:38:38.713Z,17.97
2022-07-31T03:41:01.375Z,18.01
2022-07-31T03:43:30.639Z,17.93
2022-07-31T03:46:17.195Z,17.98
2022-07-31T03:48:44.541Z,17.98
2022-07-31T03:51:13.473Z,17.98
2022-07-31T03:53:41.640Z,17.99
2022-07-31T03:56:11.994Z,17.96
2022-07-31T03:58:39.159Z,17.94
2022-07-31T04:01:10.336Z,17.97
2022-07-31T04:03:39.596Z,18.00
2022-07-31T04:06:28.206Z,18.01
2022-07-31T04:08:56.027Z,18.05
2022-07-31T04:11:22.935Z,18.09
2022-07-31T04:13:49.800Z,18.06
2022-07-31T04:16:16.806Z,18.06
2022-07-31T04:18:48.498Z,18.05
2022-07-31T04:21:20.800Z,18.04
2022-07-31T04:23:49.475Z,18.02
2022-07-31T04:26:31.328Z,17.99
2022-07-31T04:29:01.219Z,18.00
2022-07-31T04:31:28.203Z,18.01
2022-07-31T04:33:57.007Z,18.11
2022-07-31T04:36:30.309Z,18.18
2022-07-31T04:39:00.711Z,18.21
2022-07-31T04:41:28.685Z,18.25
2022-07-31T04:43:57.933Z,18.23
2022-07-31T04:46:26.513Z,18.30
2022-07-31T04:48:54.858Z,18.34
2022-07-31T04:51:23.245Z,18.39
2022-07-31T04:53:50.478Z,18.42
2022-07-31T04:56:42.258Z,18.49
2022-07-31T04:59:13.980Z,18.55
2022-07-31T05:01:44.075Z,18.58
2022-07-31T05:04:12.265Z,18.64
2022-07-31T05:06:40.354Z,18.72
2022-07-31T05:09:12.428Z,18.82
2022-07-31T05:11:43.568Z,18.99
2022-07-31T05:14:11.925Z,19.15
2022-07-31T05:16:38.813Z,19.35
2022-07-31T05:19:13.597Z,19.52
2022-07-31T05:22:02.541Z,19.63
2022-07-31T05:24:43.174Z,19.80
2022-07-31T05:27:13.091Z,19.82
2022-07-31T05:29:41.929Z,20.05
2022-07-31T05:32:09.075Z,20.16
2022-07-31T05:34:36.943Z,20.27
2022-07-31T05:37:03.998Z,20.38
2022-07-31T05:39:32.618Z,20.35
2022-07-31T05:42:18.005Z,20.35
2022-07-31T05:45:08.976Z,20.32
2022-07-31T05:47:40.344Z,20.46
2022-07-31T05:50:09.559Z,20.50
2022-07-31T05:52:36.528Z,20.63
2022-07-31T05:55:35.365Z,20.61
2022-07-31T05:58:21.094Z,20.96
2022-07-31T06:00:50.343Z,21.10
2022-07-31T06:03:23.376Z,21.26
2022-07-31T06:06:05.525Z,21.06
2022-07-31T06:08:32.490Z,21.43
2022-07-31T06:11:00.219Z,21.54
2022-07-31T06:13:27.815Z,21.83
2022-07-31T06:15:56.248Z,22.03
2022-07-31T06:18:23.204Z,22.35
2022-07-31T06:20:50.420Z,22.61
2022-07-31T06:23:22.983Z,22.80
2022-07-31T06:26:03.727Z,22.94
2022-07-31T06:28:47.336Z,23.11
2022-07-31T06:31:22.257Z,23.17
2022-07-31T06:33:53.505Z,23.57
2022-07-31T06:36:24.179Z,23.82
2022-07-31T06:38:57.787Z,23.91
2022-07-31T06:41:47.666Z,24.28
2022-07-31T06:44:30.394Z,24.52
2022-07-31T06:47:21.065Z,24.51
2022-07-31T06:49:50.988Z,24.84
2022-07-31T06:52:18.257Z,25.07
2022-07-31T06:54:46.204Z,25.26
2022-07-31T06:57:12.987Z,25.43
2022-07-31T06:59:40.897Z,25.40
2022-07-31T07:02:08.829Z,25.53
2022-07-31T07:05:04.784Z,25.76
2022-07-31T07:07:22.816Z,25.96
2022-07-31T07:09:51.111Z,26.08
2022-07-31T07:12:36.150Z,26.12
2022-07-31T07:15:02.944Z,26.49
2022-07-31T07:17:29.974Z,26.43
2022-07-31T07:19:57.234Z,26.76
2022-07-31T07:22:29.961Z,26.82
2022-07-31T07:25:01.249Z,26.95
2022-07-31T07:27:28.696Z,27.01
2022-07-31T07:29:56.136Z,27.34
2022-07-31T07:32:23.626Z,27.55
2022-07-31T07:34:59.591Z,27.45
2022-07-31T07:37:49.732Z,27.97
2022-07-31T07:40:19.440Z,28.05
2022-07-31T07:42:46.630Z,28.21
2022-07-31T07:45:14.073Z,28.26
2022-07-31T07:47:53.784Z,28.22
2022-07-31T07:50:31.263Z,28.20
2022-07-31T07:53:18.459Z,28.32
2022-07-31T07:56:08.052Z,28.14
2022-07-31T07:59:05.605Z,28.21
2022-07-31T08:02:02.935Z,28.05
2022-07-31T08:04:32.465Z,28.27
2022-07-31T08:06:59.294Z,28.54
2022-07-31T08:09:31.657Z,28.75
2022-07-31T08:12:32.997Z,28.96
2022-07-31T08:15:06.522Z,29.31
2022-07-31T08:17:45.877Z,29.59
2022-07-31T08:20:14.137Z,29.87
2022-07-31T08:22:40.962Z,30.08
2022-07-31T08:25:15.100Z,30.19
2022-07-31T08:27:43.888Z,30.41
2022-07-31T08:30:16.020Z,30.73
2022-07-31T08:32:42.940Z,30.94
2022-07-31T08:35:31.611Z,30.71
2022-07-31T08:38:03.521Z,30.80
2022-07-31T08:40:43.049Z,30.57
2022-07-31T08:43:31.207Z,30.23
2022-07-31T08:46:02.842Z,30.75
2022-07-31T08:48:33.497Z,30.96
2022-07-31T08:51:03.606Z,31.11
2022-07-31T08:54:08.241Z,31.25
2022-07-31T08:56:35.691Z,31.56
2022-07-31T08:59:03.356Z,31.73
2022-07-31T09:01:30.691Z,31.98
2022-07-31T09:03:58.809Z,32.08
2022-07-31T09:06:25.955Z,32.07
2022-07-31T09:08:52.730Z,32.10
2022-07-31T09:11:19.659Z,32.34
2022-07-31T09:14:03.777Z,32.32
2022-07-31T09:16:54.730Z,32.47
2022-07-31T09:19:51.674Z,32.47
2022-07-31T09:22:27.918Z,32.63
2022-07-31T09:25:16.479Z,32.79
2022-07-31T09:27:48.370Z,32.89
2022-07-31T09:30:16.346Z,32.87
2022-07-31T09:33:14.052Z,33.05
2022-07-31T09:35:58.692Z,33.04
2022-07-31T09:38:34.381Z,33.12
2022-07-31T09:41:55.830Z,33.35
2022-07-31T09:44:15.901Z,33.36
2022-07-31T09:46:45.330Z,33.67
2022-07-31T09:49:12.519Z,33.79
2022-07-31T09:51:42.049Z,33.54
2022-07-31T09:54:24.732Z,33.71
2022-07-31T09:57:13.902Z,33.87
2022-07-31T09:59:44.342Z,33.58
2022-07-31T10:02:14.739Z,34.05
2022-07-31T10:04:44.310Z,34.25
2022-07-31T10:07:32.026Z,34.24
2022-07-31T10:10:08.619Z,34.47
2022-07-31T10:13:04.091Z,34.62
2022-07-31T10:15:33.256Z,34.66
2022-07-31T10:18:35.731Z,34.63
2022-07-31T10:21:38.887Z,34.37
2022-07-31T10:24:29.288Z,34.58
2022-07-31T10:27:10.590Z,34.78
2022-07-31T10:29:40.063Z,34.79
2022-07-31T10:32:07.717Z,35.03
2022-07-31T10:34:38.055Z,35.22
2022-07-31T10:37:12.160Z,35.14
2022-07-31T10:40:15.969Z,35.08
2022-07-31T10:43:09.902Z,34.66
2022-07-31T10:45:54.130Z,34.98
2022-07-31T10:48:54.226Z,35.16
2022-07-31T10:51:51.182Z,35.37
2022-07-31T10:54:42.962Z,35.45
2022-07-31T10:57:34.586Z,35.65
2022-07-31T11:00:30.217Z,35.72
2022-07-31T11:03:17.695Z,35.97
2022-07-31T11:06:03.334Z,36.35
2022-07-31T11:08:52.381Z,36.81
2022-07-31T11:11:38.230Z,37.05
2022-07-31T11:14:33.045Z,37.28
2022-07-31T11:17:18.666Z,37.58
2022-07-31T11:20:25.069Z,38.00
2022-07-31T11:23:03.474Z,38.27
2022-07-31T11:25:32.471Z,38.44
2022-07-31T11:28:19.000Z,38.75
2022-07-31T11:31:03.958Z,39.02
2022-07-31T11:33:44.022Z,39.16
2022-07-31T11:36:20.222Z,39.40
2022-07-31T11:38:51.336Z,39.31
2022-07-31T11:41:22.828Z,39.52
2022-07-31T11:43:51.826Z,39.90
2022-07-31T11:46:32.156Z,39.94
2022-07-31T11:49:00.412Z,39.97
2022-07-31T11:51:28.140Z,39.32
2022-07-31T11:53:57.343Z,38.61
2022-07-31T11:56:26.242Z,37.85
2022-07-31T11:58:55.608Z,37.04
2022-07-31T12:01:29.661Z,36.04
2022-07-31T12:04:07.531Z,35.60
2022-07-31T12:06:37.134Z,35.15
2022-07-31T12:09:04.404Z,34.77
2022-07-31T12:11:33.996Z,34.63
2022-07-31T12:14:01.087Z,34.69
2022-07-31T12:16:38.921Z,34.60
2022-07-31T12:19:05.838Z,35.00
2022-07-31T12:21:40.630Z,35.30
2022-07-31T12:24:13.243Z,35.35
2022-07-31T12:26:44.043Z,35.40
2022-07-31T12:29:12.682Z,35.47
2022-07-31T12:31:54.382Z,35.57
2022-07-31T12:34:29.805Z,35.42
2022-07-31T12:36:59.728Z,35.73
2022-07-31T12:39:26.661Z,36.20
2022-07-31T12:42:30.713Z,36.56
2022-07-31T12:45:01.331Z,36.44
2022-07-31T12:47:52.063Z,36.54
2022-07-31T12:50:21.032Z,36.91
2022-07-31T12:52:47.873Z,36.86
2022-07-31T12:55:17.236Z,36.59
2022-07-31T12:57:50.640Z,36.56
2022-07-31T13:00:19.296Z,36.49
2022-07-31T13:02:46.510Z,36.29
2022-07-31T13:05:13.363Z,35.94
2022-07-31T13:07:43.659Z,35.41
2022-07-31T13:10:20.975Z,34.94
2022-07-31T13:12:51.141Z,35.01
2022-07-31T13:15:20.984Z,35.10
2022-07-31T13:17:50.869Z,34.74
2022-07-31T13:20:18.586Z,34.88
2022-07-31T13:22:45.430Z,34.80
2022-07-31T13:25:12.414Z,34.16
2022-07-31T13:27:39.663Z,33.91
2022-07-31T13:30:09.218Z,33.67
2022-07-31T13:32:36.389Z,33.60
2022-07-31T13:35:24.283Z,33.70
2022-07-31T13:37:50.638Z,33.72
2022-07-31T13:40:19.197Z,33.47
2022-07-31T13:42:45.926Z,33.10
2022-07-31T13:45:12.688Z,32.58
2022-07-31T13:47:51.504Z,32.81
2022-07-31T13:50:19.558Z,32.73
2022-07-31T13:52:47.566Z,32.52
2022-07-31T13:55:14.585Z,32.70
2022-07-31T13:57:41.437Z,32.58
2022-07-31T14:00:09.003Z,32.74
2022-07-31T14:02:35.780Z,32.56
2022-07-31T14:05:02.864Z,32.38
2022-07-31T14:07:45.175Z,32.19
2022-07-31T14:10:19.956Z,32.12
2022-07-31T14:12:47.388Z,32.18
2022-07-31T14:15:14.237Z,32.19
2022-07-31T14:17:41.113Z,32.34
2022-07-31T14:20:08.585Z,32.41
2022-07-31T14:22:36.026Z,32.22
2022-07-31T14:25:03.061Z,32.13
2022-07-31T14:27:30.101Z,32.17
2022-07-31T14:29:56.912Z,32.04
2022-07-31T14:32:24.299Z,32.03
2022-07-31T14:34:51.539Z,32.09
2022-07-31T14:37:18.376Z,31.77
2022-07-31T14:39:45.182Z,31.95
2022-07-31T14:42:12.353Z,31.90
2022-07-31T14:44:42.087Z,31.84
2022-07-31T14:47:10.406Z,31.66
2022-07-31T14:50:07.403Z,31.81
2022-07-31T14:52:24.606Z,31.72
2022-07-31T14:54:53.959Z,31.56
2022-07-31T14:57:22.392Z,31.48
2022-07-31T14:59:50.366Z,31.65
2022-07-31T15:02:22.175Z,31.46
2022-07-31T15:04:50.023Z,31.32
2022-07-31T15:10:08.047Z,31.51
2022-07-31T15:12:35.074Z,31.54
2022-07-31T15:15:02.136Z,31.45
2022-07-31T15:17:29.105Z,31.45
2022-07-31T15:19:55.899Z,31.49
2022-07-31T15:22:22.817Z,31.41
2022-07-31T15:24:50.288Z,31.36
2022-07-31T15:27:22.126Z,31.33
2022-07-31T15:30:04.457Z,31.38
2022-07-31T15:32:38.933Z,31.40
2022-07-31T15:35:08.198Z,31.31
2022-07-31T15:37:36.950Z,30.95
2022-07-31T15:40:06.060Z,30.94
2022-07-31T15:42:34.094Z,30.98
2022-07-31T15:45:01.117Z,30.84
2022-07-31T15:47:28.174Z,30.82
2022-07-31T15:49:55.241Z,30.77
2022-07-31T15:52:22.432Z,30.75
2022-07-31T15:54:51.803Z,30.69
2022-07-31T15:57:23.600Z,30.68
2022-07-31T15:59:51.825Z,30.71
2022-07-31T16:02:18.707Z,30.48
2022-07-31T16:04:51.524Z,30.52
2022-07-31T16:08:32.163Z,30.50
2022-07-31T16:10:15.675Z,30.49
2022-07-31T16:12:47.430Z,30.25
2022-07-31T16:15:16.994Z,30.20
2022-07-31T16:17:44.890Z,30.26
2022-07-31T16:20:25.535Z,30.14
2022-07-31T16:22:56.093Z,30.12
2022-07-31T16:25:24.286Z,30.14
2022-07-31T16:27:52.570Z,30.04
2022-07-31T16:30:19.545Z,30.00
2022-07-31T16:32:46.315Z,30.06
2022-07-31T16:35:13.424Z,30.05
2022-07-31T16:37:51.067Z,30.06
2022-07-31T16:40:28.246Z,30.14
2022-07-31T16:42:57.738Z,30.17
2022-07-31T16:45:24.680Z,30.00
2022-07-31T16:47:52.365Z,30.05
2022-07-31T16:50:19.637Z,30.07
2022-07-31T16:52:48.292Z,30.02
2022-07-31T16:55:17.056Z,30.02
2022-07-31T16:57:44.047Z,30.00
2022-07-31T17:00:11.482Z,30.00
2022-07-31T17:02:38.523Z,29.92
2022-07-31T17:05:05.750Z,29.89
2022-07-31T17:07:32.596Z,29.85
2022-07-31T17:09:59.391Z,29.84
2022-07-31T17:12:26.196Z,29.81
2022-07-31T17:14:52.940Z,29.79
2022-07-31T17:17:20.839Z,29.77
2022-07-31T17:19:47.725Z,29.72
2022-07-31T17:22:17.935Z,29.71
2022-07-31T17:24:50.680Z,29.67
2022-07-31T17:27:18.470Z,29.62
2022-07-31T17:29:45.535Z,29.66
2022-07-31T17:32:12.647Z,29.54
2022-07-31T17:34:40.374Z,29.60
2022-07-31T17:37:07.975Z,29.60
2022-07-31T17:39:36.240Z,29.47
2022-07-31T17:42:03.089Z,29.38
2022-07-31T17:44:30.324Z,29.42
2022-07-31T17:46:57.825Z,29.42
2022-07-31T17:49:25.681Z,29.42
2022-07-31T17:52:07.726Z,29.39
2022-07-31T17:54:34.634Z,29.36
2022-07-31T17:57:01.652Z,29.32
2022-07-31T17:59:28.803Z,29.31
2022-07-31T18:02:04.297Z,29.26
2022-07-31T18:04:33.891Z,29.24
2022-07-31T18:07:01.968Z,29.18
2022-07-31T18:09:28.939Z,29.09
2022-07-31T18:11:58.831Z,29.04
2022-07-31T18:14:25.979Z,28.96
2022-07-31T18:16:53.242Z,28.88
2022-07-31T18:19:21.848Z,28.80
2022-07-31T18:21:50.197Z,28.73
2022-07-31T18:24:17.155Z,28.63
2022-07-31T18:26:44.129Z,28.60
2022-07-31T18:29:11.166Z,28.53
2022-07-31T18:31:38.530Z,28.47
2022-07-31T18:34:05.687Z,28.40
2022-07-31T18:36:35.798Z,28.33
2022-07-31T18:39:04.172Z,28.25
2022-07-31T18:41:31.414Z,28.19
2022-07-31T18:43:58.517Z,28.13
2022-07-31T18:46:25.681Z,28.09
2022-07-31T18:48:57.131Z,28.02
2022-07-31T18:51:28.279Z,27.96
2022-07-31T18:53:56.422Z,27.87
2022-07-31T18:56:24.520Z,27.84
2022-07-31T18:58:52.136Z,27.76
2022-07-31T19:01:19.046Z,27.72
2022-07-31T19:03:45.834Z,27.70
2022-07-31T19:06:12.767Z,27.66
2022-07-31T19:08:39.662Z,27.62
2022-07-31T19:11:06.699Z,27.54
2022-07-31T19:13:33.771Z,27.52
2022-07-31T19:16:01.004Z,27.46
2022-07-31T19:18:28.506Z,27.44
2022-07-31T19:21:21.286Z,27.38
2022-07-31T19:23:43.818Z,27.29
2022-07-31T19:26:11.244Z,27.26
2022-07-31T19:28:39.939Z,27.21
2022-07-31T19:31:07.543Z,27.17
2022-07-31T19:33:34.454Z,27.11
2022-07-31T19:36:02.814Z,27.09
2022-07-31T19:38:31.789Z,27.04
2022-07-31T19:40:58.846Z,27.00
2022-07-31T19:43:25.909Z,26.95
2022-07-31T19:46:09.435Z,26.92
2022-07-31T19:48:41.913Z,26.86
2022-07-31T19:51:10.925Z,26.83
2022-07-31T19:53:37.962Z,26.81
2022-07-31T19:56:07.770Z,26.80
2022-07-31T19:58:36.207Z,26.75
2022-07-31T20:01:05.408Z,26.70
2022-07-31T20:03:32.644Z,26.68
2022-07-31T20:06:00.096Z,26.67
2022-07-31T20:08:27.114Z,26.65
2022-07-31T20:11:02.112Z,26.63
2022-07-31T20:13:30.431Z,26.57
2022-07-31T20:15:58.336Z,26.58
2022-07-31T20:18:29.102Z,26.56
2022-07-31T20:20:58.226Z,26.55
2022-07-31T20:23:25.964Z,26.51
2022-07-31T20:25:52.782Z,26.52
2022-07-31T20:28:19.811Z,26.50
2022-07-31T20:30:46.807Z,26.49
2022-07-31T20:33:13.679Z,26.49
2022-07-31T20:35:49.450Z,26.47
2022-07-31T20:38:21.218Z,26.45
2022-07-31T20:40:53.502Z,26.43
2022-07-31T20:43:21.798Z,26.41
2022-07-31T20:45:48.651Z,26.38
2022-07-31T20:48:17.993Z,26.36
2022-07-31T20:50:47.765Z,26.32
2022-07-31T20:53:15.571Z,26.33
2022-07-31T20:55:47.153Z,26.28
2022-07-31T20:58:14.088Z,26.26
2022-07-31T21:00:41.547Z,26.21
2022-07-31T21:03:08.426Z,26.22
2022-07-31T21:05:35.384Z,26.22
2022-07-31T21:08:02.259Z,26.22
2022-07-31T21:10:29.941Z,26.21
2022-07-31T21:12:57.372Z,26.21
2022-07-31T21:15:43.941Z,26.20
2022-07-31T21:18:16.040Z,26.17
2022-07-31T21:20:52.302Z,26.17
2022-07-31T21:23:27.579Z,26.17
2022-07-31T21:25:56.732Z,26.15
2022-07-31T21:28:25.287Z,26.14
2022-07-31T21:30:54.105Z,26.13
2022-07-31T21:33:20.998Z,26.06
2022-07-31T21:35:48.126Z,26.03
2022-07-31T21:38:15.987Z,25.99
2022-07-31T21:40:43.858Z,26.02
2022-07-31T21:43:11.162Z,26.01
2022-07-31T21:45:55.610Z,25.97
2022-07-31T21:48:28.035Z,25.95
2022-07-31T21:50:55.094Z,25.89
2022-07-31T21:53:22.452Z,25.86
2022-07-31T21:55:49.367Z,25.81
2022-07-31T21:58:17.785Z,25.70
2022-07-31T22:00:44.748Z,25.63
2022-07-31T22:03:11.782Z,25.60
2022-07-31T22:05:57.258Z,25.53
2022-07-31T22:08:24.091Z,25.46
2022-07-31T22:10:51.947Z,25.34
2022-07-31T22:13:19.653Z,25.32
2022-07-31T22:15:54.283Z,25.29
2022-07-31T22:18:34.298Z,25.21
2022-07-31T22:21:02.942Z,25.23
2022-07-31T22:23:29.802Z,25.16
2022-07-31T22:25:56.577Z,25.15
2022-07-31T22:28:24.765Z,25.16
2022-07-31T22:30:52.220Z,25.16
2022-07-31T22:33:19.774Z,25.10
2022-07-31T22:35:58.973Z,25.23
2022-07-31T22:38:30.884Z,25.20
2022-07-31T22:41:01.781Z,25.28
2022-07-31T22:44:13.886Z,25.31
2022-07-31T22:46:16.881Z,25.19
2022-07-31T22:48:45.821Z,25.19
2022-07-31T22:51:14.265Z,25.24
2022-07-31T22:53:43.516Z,25.29
2022-07-31T22:56:10.242Z,25.33
2022-07-31T22:58:37.002Z,25.28
2022-07-31T23:01:04.223Z,25.16
2022-07-31T23:03:30.969Z,25.05
2022-07-31T23:06:03.590Z,25.05
2022-07-31T23:08:44.425Z,25.04
2022-07-31T23:11:11.247Z,24.93
2022-07-31T23:13:39.658Z,24.97
2022-07-31T23:16:06.529Z,24.98
2022-07-31T23:18:33.266Z,24.99
2022-07-31T23:21:00.074Z,24.95
2022-07-31T23:23:26.789Z,24.92
2022-07-31T23:25:53.513Z,24.84
2022-07-31T23:28:20.416Z,24.88
2022-07-31T23:30:47.139Z,24.86
2022-07-31T23:33:17.136Z,24.90
2022-07-31T23:35:43.946Z,24.95
2022-07-31T23:38:10.786Z,24.95
2022-07-31T23:40:37.731Z,24.90
2022-07-31T23:43:04.509Z,24.88
2022-07-31T23:45:31.253Z,24.71
2022-07-31T23:47:58.915Z,24.31
2022-07-31T23:50:25.944Z,24.38
2022-07-31T23:52:52.678Z,24.46
2022-07-31T23:55:19.649Z,24.51
2022-07-31T23:57:46.400Z,24.51
